createdAt,value
2018-08-16T00:01:51.154Z,100.00
2018-08-16T00:04:21.338Z,100.00
2018-08-16T00:06:51.445Z,100.00
2018-08-16T00:09:21.594Z,100.00
2018-08-16T00:11:51.718Z,100.00
2018-08-16T00:14:21.892Z,100.00
2018-08-16T00:16:52.060Z,100.00
2018-08-16T00:19:22.199Z,100.00
2018-08-16T00:21:52.335Z,100.00
2018-08-16T00:24:22.445Z,100.00
2018-08-16T00:26:52.540Z,100.00
2018-08-16T00:29:22.681Z,100.00
2018-08-16T00:31:52.779Z,100.00
2018-08-16T00:34:22.880Z,100.00
2018-08-16T00:36:52.973Z,100.00
2018-08-16T00:39:23.287Z,100.00
2018-08-16T00:41:53.435Z,100.00
2018-08-16T00:44:23.567Z,100.00
2018-08-16T00:46:53.645Z,100.00
2018-08-16T00:49:23.764Z,100.00
2018-08-16T00:51:53.839Z,100.00
2018-08-16T00:54:23.936Z,100.00
2018-08-16T00:56:54.031Z,100.00
2018-08-16T00:59:24.204Z,100.00
2018-08-16T01:01:54.262Z,100.00
2018-08-16T01:04:24.412Z,100.00
2018-08-16T01:06:54.545Z,100.00
2018-08-16T01:09:24.629Z,100.00
2018-08-16T01:11:54.698Z,100.00
2018-08-16T01:14:24.783Z,100.00
2018-08-16T01:16:54.963Z,100.00
2018-08-16T01:19:25.206Z,100.00
2018-08-16T01:21:55.333Z,100.00
2018-08-16T01:24:25.454Z,100.00
2018-08-16T01:26:55.696Z,100.00
2018-08-16T01:29:25.841Z,100.00
2018-08-16T01:31:56.043Z,100.00
2018-08-16T01:34:26.136Z,100.00
2018-08-16T01:36:56.696Z,100.00
2018-08-16T01:39:26.784Z,100.00
2018-08-16T01:41:56.883Z,100.00
2018-08-16T01:44:27.145Z,100.00
2018-08-16T01:46:57.316Z,100.00
2018-08-16T01:49:31.602Z,100.00
2018-08-16T01:52:02.394Z,100.00
2018-08-16T01:54:32.962Z,100.00
2018-08-16T01:57:03.669Z,100.00
2018-08-16T01:59:33.807Z,100.00
2018-08-16T02:02:03.990Z,100.00
2018-08-16T02:04:35.493Z,100.00
2018-08-16T02:07:05.691Z,100.00
2018-08-16T02:09:35.939Z,100.00
2018-08-16T02:12:06.273Z,100.00
2018-08-16T02:14:36.399Z,100.00
2018-08-16T02:17:06.535Z,100.00
2018-08-16T02:19:36.666Z,100.00
2018-08-16T02:22:06.846Z,100.00
2018-08-16T02:24:37.065Z,100.00
2018-08-16T02:27:07.517Z,100.00
2018-08-16T02:29:37.691Z,100.00
2018-08-16T02:32:07.831Z,100.00
2018-08-16T02:34:38.035Z,100.00
2018-08-16T02:37:08.416Z,100.00
2018-08-16T02:39:38.557Z,100.00
2018-08-16T02:42:08.687Z,100.00
2018-08-16T02:44:38.840Z,100.00
2018-08-16T02:47:08.931Z,100.00
2018-08-16T02:49:39.143Z,100.00
2018-08-16T02:52:09.273Z,100.00
2018-08-16T02:54:39.405Z,100.00
2018-08-16T02:57:09.561Z,100.00
2018-08-16T02:59:39.695Z,100.00
2018-08-16T03:02:09.815Z,100.00
2018-08-16T03:04:39.959Z,100.00
2018-08-16T03:07:10.041Z,100.00
2018-08-16T03:09:40.215Z,100.00
2018-08-16T03:12:11.462Z,100.00
2018-08-16T03:14:42.329Z,100.00
2018-08-16T03:17:12.454Z,100.00
2018-08-16T03:19:42.567Z,100.00
2018-08-16T03:22:12.631Z,100.00
2018-08-16T03:24:42.758Z,100.00
2018-08-16T03:27:14.045Z,100.00
2018-08-16T03:29:44.208Z,100.00
2018-08-16T03:32:14.347Z,100.00
2018-08-16T03:34:44.467Z,100.00
2018-08-16T03:37:14.600Z,100.00
2018-08-16T03:39:44.745Z,100.00
2018-08-16T03:42:14.878Z,100.00
2018-08-16T03:44:44.982Z,100.00
2018-08-16T03:47:15.080Z,100.00
2018-08-16T03:49:45.208Z,100.00
2018-08-16T03:52:15.268Z,100.00
2018-08-16T03:54:45.387Z,100.00
2018-08-16T03:57:15.475Z,100.00
2018-08-16T03:59:45.614Z,100.00
2018-08-16T04:02:15.722Z,100.00
2018-08-16T04:04:45.830Z,100.00
2018-08-16T04:07:15.933Z,100.00
2018-08-16T04:09:46.014Z,100.00
2018-08-16T04:12:16.091Z,100.00
2018-08-16T04:14:46.203Z,100.00
2018-08-16T04:17:16.313Z,100.00
2018-08-16T04:19:46.425Z,100.00
2018-08-16T04:22:16.525Z,100.00
2018-08-16T04:24:46.705Z,100.00
2018-08-16T04:27:16.826Z,100.00
2018-08-16T04:29:46.864Z,100.00
2018-08-16T04:32:16.983Z,100.00
2018-08-16T04:34:47.161Z,100.00
2018-08-16T04:37:17.290Z,100.00
2018-08-16T04:39:47.512Z,100.00
2018-08-16T04:42:17.678Z,100.00
2018-08-16T04:44:47.816Z,100.00
2018-08-16T04:47:17.886Z,100.00
2018-08-16T04:49:48.081Z,100.00
2018-08-16T04:52:18.229Z,100.00
2018-08-16T04:54:48.399Z,100.00
2018-08-16T04:57:18.552Z,100.00
2018-08-16T04:59:48.737Z,100.00
2018-08-16T05:02:19.000Z,100.00
2018-08-16T05:04:49.110Z,100.00
2018-08-16T05:07:19.347Z,100.00
2018-08-16T05:09:49.555Z,100.00
2018-08-16T05:12:19.710Z,100.00
2018-08-16T05:14:49.912Z,100.00
2018-08-16T05:17:20.099Z,100.00
2018-08-16T05:19:50.316Z,100.00
2018-08-16T05:22:20.396Z,100.00
2018-08-16T05:24:50.540Z,100.00
2018-08-16T05:27:20.643Z,100.00
2018-08-16T05:29:50.739Z,100.00
2018-08-16T05:32:20.906Z,100.00
2018-08-16T05:34:51.172Z,99.91
2018-08-16T05:37:21.386Z,97.01
2018-08-16T05:39:51.563Z,96.17
2018-08-16T05:42:21.662Z,97.10
2018-08-16T05:44:51.838Z,94.08
2018-08-16T05:47:22.000Z,92.92
2018-08-16T05:49:52.100Z,92.70
2018-08-16T05:52:22.236Z,91.52
2018-08-16T05:54:52.401Z,91.27
2018-08-16T05:57:22.560Z,91.01
2018-08-16T05:59:52.734Z,91.19
2018-08-16T06:02:22.832Z,89.62
2018-08-16T06:04:53.060Z,88.70
2018-08-16T06:07:23.208Z,87.83
2018-08-16T06:09:53.347Z,87.29
2018-08-16T06:12:23.462Z,86.93
2018-08-16T06:14:53.631Z,86.86
2018-08-16T06:17:23.829Z,87.24
2018-08-16T06:19:54.022Z,87.01
2018-08-16T06:22:24.224Z,84.82
2018-08-16T06:24:54.470Z,84.02
2018-08-16T06:27:24.604Z,83.27
2018-08-16T06:29:54.768Z,82.90
2018-08-16T06:32:24.829Z,81.46
2018-08-16T06:34:55.100Z,80.50
2018-08-16T06:37:25.276Z,78.60
2018-08-16T06:39:55.459Z,76.97
2018-08-16T06:42:25.731Z,75.83
2018-08-16T06:44:55.937Z,75.00
2018-08-16T06:47:26.412Z,75.27
2018-08-16T06:49:56.606Z,76.42
2018-08-16T06:52:26.859Z,75.52
2018-08-16T06:54:57.108Z,74.73
2018-08-16T06:57:27.244Z,72.42
2018-08-16T06:59:57.499Z,71.20
2018-08-16T07:02:27.623Z,70.52
2018-08-16T07:04:57.852Z,68.48
2018-08-16T07:07:27.942Z,66.96
2018-08-16T07:09:58.064Z,66.09
2018-08-16T07:12:28.285Z,66.19
2018-08-16T07:14:58.397Z,66.04
2018-08-16T07:17:28.529Z,65.52
2018-08-16T07:19:58.676Z,67.38
2018-08-16T07:22:28.756Z,65.59
2018-08-16T07:24:58.949Z,63.72
2018-08-16T07:27:29.121Z,62.53
2018-08-16T07:29:59.279Z,61.53
2018-08-16T07:32:29.433Z,60.03
2018-08-16T07:34:59.695Z,59.54
2018-08-16T07:37:29.871Z,60.72
2018-08-16T07:40:00.111Z,59.79
2018-08-16T07:42:30.196Z,60.20
2018-08-16T07:45:00.514Z,58.09
2018-08-16T07:47:30.738Z,57.51
2018-08-16T07:50:00.950Z,55.66
2018-08-16T07:52:31.073Z,55.11
2018-08-16T07:55:01.151Z,55.72
2018-08-16T07:57:31.216Z,56.47
2018-08-16T08:00:01.440Z,54.17
2018-08-16T08:02:31.734Z,53.92
2018-08-16T08:05:01.917Z,54.15
2018-08-16T08:07:32.049Z,53.27
2018-08-16T08:10:02.179Z,53.76
2018-08-16T08:12:32.329Z,55.04
2018-08-16T08:15:02.505Z,55.08
2018-08-16T08:17:32.615Z,53.52
2018-08-16T08:20:02.853Z,50.51
2018-08-16T08:22:32.998Z,48.91
2018-08-16T08:25:03.098Z,50.74
2018-08-16T08:27:33.229Z,49.77
2018-08-16T08:30:03.466Z,51.71
2018-08-16T08:32:33.546Z,50.17
2018-08-16T08:35:03.756Z,48.34
2018-08-16T08:37:50.328Z,46.81
2018-08-16T08:40:20.505Z,47.00
2018-08-16T08:42:50.567Z,44.35
2018-08-16T08:45:20.687Z,47.42
2018-08-16T08:47:54.838Z,46.75
2018-08-16T08:50:25.545Z,43.80
2018-08-16T08:54:44.026Z,40.97
2018-08-16T08:57:31.401Z,43.25
2018-08-16T09:00:01.473Z,45.29
2018-08-16T09:02:31.718Z,45.68
2018-08-16T09:05:01.853Z,46.68
2018-08-16T09:07:32.107Z,45.40
2018-08-16T09:11:17.311Z,43.93
2018-08-16T09:14:05.730Z,41.93
2018-08-16T09:16:37.224Z,43.05
2018-08-16T09:19:08.108Z,43.08
2018-08-16T09:21:38.478Z,41.82
2018-08-16T09:24:08.793Z,41.27
2018-08-16T09:26:46.207Z,41.63
2018-08-16T09:29:48.137Z,40.73
2018-08-16T09:32:34.916Z,42.13
2018-08-16T09:35:05.184Z,42.78
2018-08-16T09:37:37.250Z,44.34
2018-08-16T09:40:08.135Z,44.80
2018-08-16T09:42:38.244Z,45.71
2018-08-16T09:45:25.018Z,46.55
2018-08-16T09:48:11.663Z,46.12
2018-08-16T09:50:41.854Z,45.47
2018-08-16T09:53:11.931Z,45.32
2018-08-16T09:55:42.231Z,46.55
2018-08-16T09:58:12.434Z,45.39
2018-08-16T10:01:15.465Z,44.65
2018-08-16T10:03:45.711Z,45.42
2018-08-16T10:06:15.884Z,48.68
2018-08-16T10:08:46.006Z,50.74
2018-08-16T10:11:16.158Z,50.58
2018-08-16T10:13:46.368Z,49.30
2018-08-16T10:16:16.510Z,49.87
2018-08-16T10:18:46.570Z,49.79
2018-08-16T10:21:16.673Z,47.81
2018-08-16T10:23:47.061Z,48.67
2018-08-16T10:26:17.312Z,47.33
2018-08-16T10:28:47.468Z,46.43
2018-08-16T10:31:17.619Z,46.30
2018-08-16T10:33:47.800Z,46.72
2018-08-16T10:36:17.966Z,48.51
2018-08-16T10:38:48.065Z,49.59
2018-08-16T10:41:18.293Z,49.30
2018-08-16T10:43:48.479Z,47.91
2018-08-16T10:46:18.775Z,47.50
2018-08-16T10:48:49.000Z,47.65
2018-08-16T10:51:19.257Z,46.82
2018-08-16T10:53:49.422Z,48.41
2018-08-16T10:56:19.598Z,50.35
2018-08-16T10:58:49.781Z,47.49
2018-08-16T11:01:20.072Z,49.02
2018-08-16T11:03:50.315Z,48.03
2018-08-16T11:06:20.727Z,48.92
2018-08-16T11:08:50.966Z,49.84
2018-08-16T11:11:21.075Z,47.91
2018-08-16T11:13:51.198Z,47.31
2018-08-16T11:16:21.353Z,46.06
2018-08-16T11:18:51.508Z,45.68
2018-08-16T11:21:21.712Z,45.84
2018-08-16T11:23:51.823Z,46.48
2018-08-16T11:26:22.152Z,45.94
2018-08-16T11:28:52.252Z,45.45
2018-08-16T11:31:22.392Z,46.31
2018-08-16T11:33:52.505Z,45.60
2018-08-16T11:36:22.667Z,45.15
2018-08-16T11:38:52.749Z,45.08
2018-08-16T11:41:22.851Z,44.89
2018-08-16T11:43:52.948Z,43.85
2018-08-16T11:46:23.138Z,44.39
2018-08-16T11:48:53.300Z,44.83
2018-08-16T11:51:23.458Z,45.06
2018-08-16T11:53:53.555Z,44.72
2018-08-16T11:56:23.726Z,45.32
2018-08-16T11:58:53.895Z,44.40
2018-08-16T12:01:24.025Z,44.50
2018-08-16T12:03:54.471Z,44.35
2018-08-16T12:06:24.660Z,44.41
2018-08-16T12:08:54.663Z,43.37
2018-08-16T12:11:24.730Z,43.34
2018-08-16T12:13:56.053Z,43.23
2018-08-16T12:16:26.214Z,44.18
2018-08-16T12:18:56.310Z,44.42
2018-08-16T12:21:26.626Z,42.78
2018-08-16T12:23:56.826Z,42.43
2018-08-16T12:26:27.007Z,42.44
2018-08-16T12:28:57.113Z,42.55
2018-08-16T12:31:27.247Z,42.21
2018-08-16T12:33:57.303Z,42.04
2018-08-16T12:36:27.544Z,42.80
2018-08-16T12:38:57.916Z,43.09
2018-08-16T12:41:28.137Z,42.87
2018-08-16T12:43:58.307Z,41.31
2018-08-16T12:46:28.453Z,42.46
2018-08-16T12:48:58.580Z,42.95
2018-08-16T12:51:28.915Z,41.91
2018-08-16T12:53:59.112Z,42.76
2018-08-16T12:56:29.298Z,42.24
2018-08-16T12:58:59.468Z,43.07
2018-08-16T13:01:29.609Z,41.34
2018-08-16T13:03:59.721Z,41.07
2018-08-16T13:06:29.951Z,40.06
2018-08-16T13:09:00.183Z,40.60
2018-08-16T13:11:30.391Z,41.10
2018-08-16T13:14:00.628Z,39.84
2018-08-16T13:16:30.847Z,40.12
2018-08-16T13:19:01.063Z,40.45
2018-08-16T13:21:31.329Z,40.01
2018-08-16T13:24:02.184Z,38.79
2018-08-16T13:26:32.413Z,39.78
2018-08-16T13:29:02.581Z,40.85
2018-08-16T13:31:32.678Z,40.38
2018-08-16T13:34:03.066Z,40.48
2018-08-16T13:36:33.320Z,41.44
2018-08-16T13:39:03.704Z,41.12
2018-08-16T13:41:33.927Z,41.12
2018-08-16T13:44:04.151Z,41.47
2018-08-16T13:46:34.376Z,41.17
2018-08-16T13:49:04.567Z,40.28
2018-08-16T13:51:34.697Z,40.86
2018-08-16T13:54:04.946Z,39.56
2018-08-16T13:56:35.130Z,38.72
2018-08-16T13:59:05.579Z,38.80
2018-08-16T14:01:35.894Z,40.83
2018-08-16T14:04:06.058Z,39.50
2018-08-16T14:06:36.247Z,40.04
2018-08-16T14:09:10.042Z,40.83
2018-08-16T14:11:40.373Z,39.80
2018-08-16T14:14:10.574Z,39.14
2018-08-16T14:16:40.827Z,38.82
2018-08-16T14:19:10.946Z,38.48
2018-08-16T14:21:41.123Z,37.98
2018-08-16T14:24:11.377Z,39.46
2018-08-16T14:26:41.575Z,36.85
2018-08-16T14:29:11.700Z,37.32
2018-08-16T14:31:41.876Z,37.27
2018-08-16T14:34:12.072Z,35.98
2018-08-16T14:36:42.228Z,36.77
2018-08-16T14:39:13.235Z,37.61
2018-08-16T14:41:43.448Z,37.92
2018-08-16T14:44:13.619Z,38.14
2018-08-16T14:46:43.759Z,38.64
2018-08-16T14:49:13.915Z,37.64
2018-08-16T14:51:44.123Z,38.05
2018-08-16T14:54:14.266Z,36.20
2018-08-16T14:56:44.429Z,36.69
2018-08-16T14:59:14.485Z,36.30
2018-08-16T15:01:44.767Z,36.01
2018-08-16T15:04:14.889Z,36.29
2018-08-16T15:06:45.018Z,35.50
2018-08-16T15:09:15.107Z,33.96
2018-08-16T15:11:45.287Z,33.51
2018-08-16T15:14:15.483Z,33.26
2018-08-16T15:16:45.592Z,33.22
2018-08-16T15:19:15.744Z,33.37
2018-08-16T15:21:45.886Z,33.52
2018-08-16T15:24:19.763Z,32.23
2018-08-16T15:26:50.626Z,33.02
2018-08-16T15:29:21.155Z,33.15
2018-08-16T15:31:51.357Z,32.03
2018-08-16T15:34:21.485Z,31.76
2018-08-16T15:36:51.690Z,31.27
2018-08-16T15:39:21.943Z,30.64
2018-08-16T15:41:52.090Z,30.20
2018-08-16T15:44:22.200Z,30.79
2018-08-16T15:46:52.458Z,30.21
2018-08-16T15:49:22.570Z,30.44
2018-08-16T15:51:52.831Z,30.86
2018-08-16T15:54:23.163Z,31.18
2018-08-16T15:56:53.618Z,30.86
2018-08-16T15:59:24.224Z,30.42
2018-08-16T16:01:54.664Z,30.40
2018-08-16T16:04:25.099Z,30.42
2018-08-16T16:06:55.762Z,30.73
2018-08-16T16:09:26.248Z,31.44
2018-08-16T16:11:56.519Z,30.18
2018-08-16T16:14:26.725Z,30.03
2018-08-16T16:16:56.977Z,30.57
2018-08-16T16:19:27.156Z,30.21
2018-08-16T16:21:57.370Z,30.27
2018-08-16T16:24:27.550Z,31.39
2018-08-16T16:26:57.705Z,34.67
2018-08-16T16:29:27.894Z,35.24
2018-08-16T16:31:58.026Z,36.40
2018-08-16T16:34:28.126Z,36.51
2018-08-16T16:36:58.305Z,35.92
2018-08-16T16:39:29.093Z,37.13
2018-08-16T16:41:59.244Z,37.47
2018-08-16T16:44:29.929Z,37.80
2018-08-16T16:47:00.058Z,37.31
2018-08-16T16:49:30.224Z,38.10
2018-08-16T16:52:00.583Z,38.60
2018-08-16T16:54:30.690Z,40.78
2018-08-16T16:57:00.904Z,41.44
2018-08-16T16:59:31.068Z,42.28
2018-08-16T17:02:01.223Z,41.49
2018-08-16T17:04:31.454Z,42.97
2018-08-16T17:07:01.637Z,42.54
2018-08-16T17:09:31.728Z,42.31
2018-08-16T17:12:01.983Z,42.03
2018-08-16T17:14:32.128Z,42.11
2018-08-16T17:17:02.457Z,42.51
2018-08-16T17:19:32.842Z,42.61
2018-08-16T17:22:03.008Z,43.34
2018-08-16T17:24:33.119Z,43.05
2018-08-16T17:27:03.346Z,43.78
2018-08-16T17:29:33.436Z,44.29
2018-08-16T17:32:03.678Z,44.61
2018-08-16T17:34:33.783Z,44.95
2018-08-16T17:37:04.089Z,45.20
2018-08-16T17:39:34.248Z,45.31
2018-08-16T17:42:04.440Z,46.45
2018-08-16T17:44:34.554Z,47.36
2018-08-16T17:47:04.775Z,47.46
2018-08-16T17:49:34.948Z,48.23
2018-08-16T17:52:05.232Z,48.41
2018-08-16T17:54:35.357Z,48.02
2018-08-16T17:57:05.558Z,48.64
2018-08-16T17:59:35.647Z,48.60
2018-08-16T18:02:05.845Z,49.09
2018-08-16T18:04:36.009Z,49.97
2018-08-16T18:07:06.336Z,49.02
2018-08-16T18:09:36.474Z,49.61
2018-08-16T18:12:07.549Z,49.85
2018-08-16T18:14:37.669Z,49.50
2018-08-16T18:17:07.937Z,50.44
2018-08-16T18:19:38.099Z,50.01
2018-08-16T18:22:08.818Z,51.10
2018-08-16T18:24:38.989Z,50.90
2018-08-16T18:27:09.151Z,50.63
2018-08-16T18:29:39.251Z,51.74
2018-08-16T18:32:09.438Z,50.70
2018-08-16T18:34:39.568Z,51.64
2018-08-16T18:37:09.775Z,52.13
2018-08-16T18:39:39.974Z,52.91
2018-08-16T18:42:10.125Z,53.87
2018-08-16T18:44:40.243Z,53.95
2018-08-16T18:47:10.434Z,53.51
2018-08-16T18:49:40.516Z,53.33
2018-08-16T18:52:10.741Z,53.79
2018-08-16T18:54:41.017Z,54.09
2018-08-16T18:57:11.283Z,54.47
2018-08-16T18:59:41.393Z,54.55
2018-08-16T19:02:11.612Z,54.84
2018-08-16T19:04:41.790Z,55.86
2018-08-16T19:07:11.947Z,56.34
2018-08-16T19:09:42.052Z,55.94
2018-08-16T19:12:12.219Z,56.34
2018-08-16T19:14:42.316Z,56.88
2018-08-16T19:17:12.546Z,56.77
2018-08-16T19:19:42.720Z,57.53
2018-08-16T19:22:12.865Z,57.32
2018-08-16T19:24:43.032Z,57.97
2018-08-16T19:27:13.252Z,57.82
2018-08-16T19:29:43.411Z,58.38
2018-08-16T19:32:13.709Z,58.24
2018-08-16T19:34:43.904Z,58.50
2018-08-16T19:37:14.044Z,58.87
2018-08-16T19:39:44.191Z,59.08
2018-08-16T19:42:14.338Z,59.31
2018-08-16T19:44:44.500Z,59.77
2018-08-16T19:47:14.812Z,60.40
2018-08-16T19:49:45.123Z,60.04
2018-08-16T19:52:15.244Z,60.45
2018-08-16T19:54:45.442Z,59.82
2018-08-16T19:57:15.782Z,60.19
2018-08-16T19:59:45.943Z,60.89
2018-08-16T20:02:16.178Z,61.37
2018-08-16T20:04:46.269Z,61.72
2018-08-16T20:07:16.425Z,61.33
2018-08-16T20:09:46.583Z,61.40
2018-08-16T20:12:16.793Z,61.58
2018-08-16T20:14:46.910Z,61.34
2018-08-16T20:17:17.047Z,61.14
2018-08-16T20:19:47.188Z,61.19
2018-08-16T20:22:20.484Z,61.87
2018-08-16T20:24:50.937Z,61.94
2018-08-16T20:27:21.121Z,62.75
2018-08-16T20:29:51.183Z,62.96
2018-08-16T20:32:21.392Z,63.32
2018-08-16T20:34:51.493Z,63.24
2018-08-16T20:37:21.699Z,63.34
2018-08-16T20:39:51.854Z,63.81
2018-08-16T20:42:22.133Z,65.27
2018-08-16T20:44:52.544Z,64.56
2018-08-16T20:47:22.715Z,63.83
2018-08-16T20:49:52.852Z,63.17
2018-08-16T20:52:23.050Z,63.85
2018-08-16T20:54:53.168Z,63.76
2018-08-16T20:57:23.392Z,64.69
2018-08-16T20:59:53.394Z,65.25
2018-08-16T21:02:23.564Z,67.08
2018-08-16T21:04:53.722Z,69.26
2018-08-16T21:07:23.950Z,68.67
2018-08-16T21:09:54.055Z,69.18
2018-08-16T21:12:24.256Z,69.36
2018-08-16T21:14:54.365Z,70.12
2018-08-16T21:17:24.534Z,71.34
2018-08-16T21:19:54.648Z,71.07
2018-08-16T21:22:24.759Z,71.73
2018-08-16T21:24:54.956Z,70.80
2018-08-16T21:27:25.266Z,70.00
2018-08-16T21:29:55.425Z,69.39
2018-08-16T21:32:25.595Z,70.19
2018-08-16T21:34:55.691Z,70.08
2018-08-16T21:37:25.871Z,70.80
2018-08-16T21:39:56.010Z,71.12
2018-08-16T21:42:26.174Z,71.82
2018-08-16T21:44:56.245Z,72.92
2018-08-16T21:47:26.431Z,73.61
2018-08-16T21:49:56.596Z,74.98
2018-08-16T21:52:26.895Z,74.52
2018-08-16T21:54:57.064Z,75.12
2018-08-16T21:57:27.293Z,73.77
2018-08-16T21:59:57.458Z,73.58
2018-08-16T22:02:27.617Z,73.64
2018-08-16T22:04:57.795Z,73.97
2018-08-16T22:08:08.171Z,75.30
2018-08-16T22:10:38.610Z,75.45
2018-08-16T22:13:08.775Z,76.31
2018-08-16T22:15:38.990Z,76.76
2018-08-16T22:18:09.326Z,77.53
2018-08-16T22:20:39.389Z,77.95
2018-08-16T22:23:09.698Z,78.06
2018-08-16T22:25:39.857Z,78.53
2018-08-16T22:28:10.044Z,79.24
2018-08-16T22:30:40.125Z,79.12
2018-08-16T22:33:10.267Z,79.45
2018-08-16T22:35:40.420Z,79.42
2018-08-16T22:38:10.552Z,80.28
2018-08-16T22:40:40.623Z,80.25
2018-08-16T22:43:10.884Z,81.11
2018-08-16T22:45:41.178Z,80.72
2018-08-16T22:48:11.321Z,81.20
2018-08-16T22:50:41.458Z,81.06
2018-08-16T22:53:11.591Z,81.46
2018-08-16T22:55:41.800Z,81.37
2018-08-16T22:58:12.746Z,79.68
2018-08-16T23:00:42.867Z,79.01
2018-08-16T23:03:13.028Z,78.54
2018-08-16T23:05:43.161Z,78.94
2018-08-16T23:08:13.313Z,78.15
2018-08-16T23:10:43.447Z,77.34
2018-08-16T23:13:13.690Z,77.79
2018-08-16T23:15:44.133Z,78.13
2018-08-16T23:18:14.241Z,78.17
2018-08-16T23:20:44.422Z,78.82
2018-08-16T23:23:14.513Z,77.91
2018-08-16T23:25:44.649Z,78.87
2018-08-16T23:28:14.764Z,78.65
2018-08-16T23:30:44.819Z,78.88
2018-08-16T23:33:15.012Z,78.46
2018-08-16T23:35:45.162Z,78.36
2018-08-16T23:38:15.232Z,78.58
2018-08-16T23:40:45.361Z,79.43
2018-08-16T23:43:15.538Z,78.85
2018-08-16T23:45:45.670Z,79.12
2018-08-16T23:48:29.461Z,78.28
2018-08-16T23:50:59.787Z,79.08
2018-08-16T23:53:30.049Z,79.59
2018-08-16T23:56:00.204Z,79.82
2018-08-16T23:58:30.389Z,79.62
